createdAt,value
2019-04-14T00:06:46.361Z,93.50
2019-04-14T00:09:20.485Z,94.40
2019-04-14T00:15:39.626Z,94.60
2019-04-14T00:18:19.191Z,96.40
2019-04-14T00:23:41.588Z,98.60
2019-04-14T00:26:24.746Z,99.20
2019-04-14T00:29:06.843Z,99.30
2019-04-14T00:31:51.925Z,99.90
2019-04-14T00:34:52.778Z,99.90
2019-04-14T00:38:01.206Z,99.90
2019-04-14T00:41:35.385Z,99.90
2019-04-14T00:44:31.783Z,99.90
2019-04-14T00:47:24.723Z,99.90
2019-04-14T00:50:26.043Z,99.90
2019-04-14T00:53:09.763Z,99.90
2019-04-14T00:55:51.620Z,99.90
2019-04-14T00:58:22.110Z,99.90
2019-04-14T01:04:07.637Z,99.90
2019-04-14T01:06:51.238Z,99.90
2019-04-14T01:09:22.286Z,99.90
2019-04-14T01:12:05.972Z,99.90
2019-04-14T01:14:49.463Z,99.90
2019-04-14T01:17:31.506Z,99.90
2019-04-14T01:20:14.626Z,99.90
2019-04-14T01:22:57.468Z,99.90
2019-04-14T01:25:39.503Z,99.90
2019-04-14T01:28:11.236Z,99.90
2019-04-14T01:34:26.007Z,99.90
2019-04-14T01:37:09.315Z,99.90
2019-04-14T01:39:52.399Z,99.90
2019-04-14T01:42:24.488Z,99.90
2019-04-14T01:57:56.758Z,99.90
2019-04-14T02:00:59.720Z,99.90
2019-04-14T02:07:10.552Z,99.90
2019-04-14T02:10:12.862Z,99.90
2019-04-14T02:15:55.004Z,99.90
2019-04-14T02:18:38.408Z,99.90
2019-04-14T02:21:21.603Z,99.90
2019-04-14T02:24:04.839Z,99.90
2019-04-14T02:26:48.041Z,99.90
2019-04-14T02:29:18.976Z,99.90
2019-04-14T02:32:37.554Z,99.90
2019-04-14T02:41:33.669Z,99.90
2019-04-14T02:52:19.766Z,99.90
2019-04-14T02:55:04.350Z,99.90
2019-04-14T02:57:55.506Z,99.90
2019-04-14T03:03:24.194Z,99.90
2019-04-14T03:08:45.615Z,99.90
2019-04-14T03:20:34.103Z,99.90
2019-04-14T03:23:34.853Z,99.90
2019-04-14T03:26:49.978Z,99.90
2019-04-14T03:29:39.238Z,99.90
2019-04-14T03:32:31.922Z,99.90
2019-04-14T03:40:50.613Z,99.90
2019-04-14T03:43:30.614Z,99.90
2019-04-14T03:46:17.764Z,99.90
2019-04-14T03:49:07.371Z,99.90
2019-04-14T03:51:55.805Z,99.90
2019-04-14T03:54:14.396Z,99.90
2019-04-14T03:57:08.350Z,99.90
2019-04-14T03:59:52.035Z,99.90
2019-04-14T04:03:02.144Z,99.90
2019-04-14T04:05:44.123Z,99.90
2019-04-14T04:08:46.388Z,99.90
2019-04-14T04:11:49.843Z,99.90
2019-04-14T04:14:31.902Z,99.90
2019-04-14T04:17:34.152Z,99.90
2019-04-14T04:23:19.103Z,99.90
2019-04-14T04:26:21.194Z,99.90
2019-04-14T04:29:22.360Z,99.90
2019-04-14T04:35:45.747Z,99.90
2019-04-14T04:38:46.999Z,99.90
2019-04-14T04:41:29.626Z,99.90
2019-04-14T04:44:11.623Z,99.90
2019-04-14T04:46:54.798Z,99.90
2019-04-14T04:49:38.313Z,99.90
2019-04-14T04:52:28.064Z,99.90
2019-04-14T04:54:58.659Z,99.90
2019-04-14T05:00:43.888Z,99.90
2019-04-14T05:03:17.041Z,99.90
2019-04-14T05:06:08.976Z,99.90
2019-04-14T05:12:09.018Z,99.90
2019-04-14T05:15:29.085Z,99.90
2019-04-14T05:18:19.981Z,99.90
2019-04-14T05:21:03.951Z,99.90
2019-04-14T05:23:47.404Z,99.90
2019-04-14T05:26:17.915Z,99.90
2019-04-14T05:29:07.779Z,99.90
2019-04-14T05:31:51.664Z,99.90
2019-04-14T05:34:33.403Z,99.90
2019-04-14T05:37:16.776Z,99.60
2019-04-14T05:39:59.367Z,98.00
2019-04-14T05:42:42.755Z,96.30
2019-04-14T05:45:26.182Z,95.20
2019-04-14T05:48:09.619Z,93.40
2019-04-14T05:50:53.413Z,92.60
2019-04-14T05:53:35.523Z,92.60
2019-04-14T05:56:18.629Z,90.90
2019-04-14T05:59:00.560Z,89.70
2019-04-14T06:01:42.523Z,84.10
2019-04-14T06:04:13.616Z,79.50
2019-04-14T06:07:03.106Z,71.60
2019-04-14T06:09:46.353Z,64.10
2019-04-14T06:12:16.751Z,57.60
2019-04-14T06:14:47.172Z,55.20
2019-04-14T06:20:37.705Z,51.30
2019-04-14T06:23:20.123Z,44.80
2019-04-14T06:26:02.734Z,44.10
2019-04-14T06:28:44.519Z,41.30
2019-04-14T06:31:36.182Z,39.40
2019-04-14T06:34:44.689Z,40.10
2019-04-14T06:37:31.214Z,36.80
2019-04-14T06:40:02.032Z,32.90
2019-04-14T06:42:51.522Z,30.60
2019-04-14T06:45:23.499Z,29.50
2019-04-14T06:51:14.974Z,27.90
2019-04-14T06:53:56.847Z,28.00
2019-04-14T06:56:39.095Z,28.00
2019-04-14T06:59:09.572Z,27.90
2019-04-14T07:07:57.251Z,25.00
2019-04-14T07:10:38.955Z,25.30
2019-04-14T07:13:20.851Z,24.60
2019-04-14T07:16:03.147Z,23.80
2019-04-14T07:18:45.619Z,23.90
2019-04-14T07:21:16.131Z,23.80
2019-04-14T07:27:06.823Z,23.00
2019-04-14T07:30:08.215Z,21.60
2019-04-14T07:39:34.376Z,22.40
2019-04-14T07:42:54.732Z,20.90
2019-04-14T07:51:50.202Z,21.90
2019-04-14T07:54:58.795Z,21.80
2019-04-14T07:58:08.824Z,24.20
2019-04-14T08:01:16.936Z,24.50
2019-04-14T08:04:21.198Z,25.70
2019-04-14T08:07:04.127Z,25.90
2019-04-14T08:09:37.242Z,24.10
2019-04-14T08:15:30.019Z,24.40
2019-04-14T08:18:31.920Z,23.50
2019-04-14T08:21:14.006Z,22.00
2019-04-14T08:23:55.752Z,21.20
2019-04-14T08:26:38.346Z,22.60
2019-04-14T08:29:20.681Z,23.70
2019-04-14T08:32:03.020Z,25.00
2019-04-14T08:34:45.607Z,24.80
2019-04-14T08:37:27.979Z,26.90
2019-04-14T08:40:09.316Z,26.90
2019-04-14T08:43:10.659Z,25.50
2019-04-14T08:46:12.248Z,24.90
2019-04-14T08:52:16.755Z,22.70
2019-04-14T08:55:43.099Z,21.10
2019-04-14T08:59:19.767Z,20.50
2019-04-14T09:02:28.067Z,20.90
2019-04-14T09:05:18.827Z,21.90
2019-04-14T09:08:27.475Z,21.60
2019-04-14T09:11:34.174Z,20.30
2019-04-14T09:14:17.579Z,20.40
2019-04-14T09:17:00.242Z,19.50
2019-04-14T09:19:30.742Z,20.10
2019-04-14T09:25:03.220Z,19.00
2019-04-14T09:30:47.651Z,18.60
2019-04-14T09:33:18.167Z,18.00
2019-04-14T09:39:09.482Z,18.90
2019-04-14T09:41:51.575Z,17.30
2019-04-14T09:44:39.521Z,17.90
2019-04-14T09:47:41.478Z,16.70
2019-04-14T09:50:12.085Z,17.20
2019-04-14T09:53:01.913Z,17.70
2019-04-14T09:55:53.059Z,17.40
2019-04-14T09:58:54.583Z,17.10
2019-04-14T10:01:36.989Z,17.80
2019-04-14T10:04:19.123Z,16.60
2019-04-14T10:07:02.009Z,17.70
2019-04-14T10:09:44.508Z,18.00
2019-04-14T10:12:26.857Z,19.10
2019-04-14T10:15:08.738Z,19.70
2019-04-14T10:17:51.175Z,20.30
2019-04-14T10:20:33.788Z,19.90
2019-04-14T10:23:15.656Z,20.30
2019-04-14T10:25:57.547Z,21.10
2019-04-14T10:28:39.779Z,20.50
2019-04-14T10:31:22.195Z,20.80
2019-04-14T10:33:53.251Z,20.90
2019-04-14T10:36:43.182Z,21.20
2019-04-14T10:39:44.337Z,22.10
2019-04-14T10:42:26.567Z,21.20
2019-04-14T10:45:09.187Z,20.80
2019-04-14T10:47:57.789Z,21.10
2019-04-14T10:50:41.403Z,20.90
2019-04-14T10:53:11.903Z,19.90
2019-04-14T10:59:03.039Z,20.40
2019-04-14T11:01:45.763Z,20.90
2019-04-14T11:04:28.599Z,20.90
2019-04-14T11:07:15.538Z,20.90
2019-04-14T11:09:58.772Z,21.40
2019-04-14T11:12:41.371Z,21.30
2019-04-14T11:15:23.837Z,21.30
2019-04-14T11:18:05.667Z,21.90
2019-04-14T11:20:47.636Z,22.70
2019-04-14T11:23:18.125Z,22.50
2019-04-14T11:32:29.704Z,21.60
2019-04-14T11:35:31.063Z,21.40
2019-04-14T11:38:36.167Z,22.00
2019-04-14T11:41:21.512Z,21.60
2019-04-14T11:44:03.396Z,22.50
2019-04-14T11:46:33.895Z,23.60
2019-04-14T11:52:18.098Z,23.40
2019-04-14T11:55:00.319Z,23.40
2019-04-14T11:57:31.421Z,22.90
2019-04-14T12:00:39.899Z,23.20
2019-04-14T12:09:29.271Z,23.30
2019-04-14T12:12:18.839Z,23.90
2019-04-14T12:15:22.027Z,23.50
2019-04-14T12:18:04.430Z,22.70
2019-04-14T12:23:46.307Z,22.40
2019-04-14T12:26:28.623Z,23.40
2019-04-14T12:29:11.816Z,23.80
2019-04-14T12:31:53.675Z,24.10
2019-04-14T12:34:24.439Z,23.90
2019-04-14T12:37:14.207Z,24.60
2019-04-14T12:40:15.636Z,24.20
2019-04-14T12:43:16.959Z,24.40
2019-04-14T12:46:25.588Z,23.70
2019-04-14T12:49:34.267Z,23.80
2019-04-14T12:52:36.217Z,23.60
2019-04-14T12:55:18.821Z,22.90
2019-04-14T12:57:50.695Z,22.80
2019-04-14T13:00:59.183Z,22.50
2019-04-14T13:06:51.829Z,23.80
2019-04-14T13:09:34.023Z,24.50
2019-04-14T13:12:16.709Z,25.40
2019-04-14T13:14:59.281Z,25.70
2019-04-14T13:17:41.891Z,26.30
2019-04-14T13:20:24.296Z,25.20
2019-04-14T13:22:54.761Z,24.60
2019-04-14T13:28:27.771Z,24.00
2019-04-14T13:31:17.671Z,24.10
2019-04-14T13:34:19.740Z,24.20
2019-04-14T13:37:02.619Z,24.40
2019-04-14T13:39:33.616Z,24.20
2019-04-14T13:48:24.756Z,24.50
2019-04-14T13:51:07.180Z,23.50
2019-04-14T13:53:50.671Z,22.60
2019-04-14T13:56:21.166Z,22.80
2019-04-14T14:01:54.990Z,22.70
2019-04-14T14:04:37.336Z,24.30
2019-04-14T14:10:09.980Z,24.10
2019-04-14T14:13:05.887Z,24.60
2019-04-14T14:16:00.604Z,24.40
2019-04-14T14:18:38.828Z,24.20
2019-04-14T14:21:40.321Z,24.50
2019-04-14T14:24:42.614Z,24.60
2019-04-14T14:27:24.879Z,24.70
2019-04-14T14:29:55.666Z,25.70
2019-04-14T14:35:40.652Z,25.10
2019-04-14T14:38:22.499Z,25.60
2019-04-14T14:41:06.879Z,25.80
2019-04-14T14:43:49.239Z,26.20
2019-04-14T14:52:52.927Z,25.40
2019-04-14T14:55:35.383Z,26.10
2019-04-14T14:58:17.195Z,27.10
2019-04-14T15:00:59.686Z,27.20
2019-04-14T15:03:42.161Z,27.90
2019-04-14T15:06:24.718Z,27.60
2019-04-14T15:09:07.040Z,27.60
2019-04-14T15:11:48.839Z,28.20
2019-04-14T15:14:19.315Z,27.70
2019-04-14T15:17:08.891Z,27.80
2019-04-14T15:23:24.255Z,27.60
2019-04-14T15:25:57.050Z,26.70
2019-04-14T15:28:39.146Z,27.20
2019-04-14T15:34:21.771Z,27.60
2019-04-14T15:37:03.807Z,27.80
2019-04-14T15:39:46.426Z,28.40
2019-04-14T15:42:28.939Z,29.20
2019-04-14T15:50:31.640Z,28.40
2019-04-14T15:53:14.032Z,28.90
2019-04-14T15:55:55.940Z,29.50
2019-04-14T16:02:10.596Z,29.40
2019-04-14T16:05:31.071Z,29.90
2019-04-14T16:08:17.495Z,30.30
2019-04-14T16:11:04.019Z,30.90
2019-04-14T16:13:53.223Z,31.30
2019-04-14T16:17:02.397Z,31.80
2019-04-14T16:20:12.459Z,33.00
2019-04-14T16:22:56.302Z,33.40
2019-04-14T16:25:40.087Z,33.90
2019-04-14T16:28:48.591Z,32.70
2019-04-14T16:32:10.151Z,33.30
2019-04-14T16:34:55.147Z,33.50
2019-04-14T16:37:43.111Z,33.20
2019-04-14T16:40:44.427Z,33.10
2019-04-14T16:43:15.288Z,33.80
2019-04-14T16:52:21.571Z,34.40
2019-04-14T17:03:47.741Z,36.40
2019-04-14T17:06:21.074Z,36.90
2019-04-14T17:08:51.862Z,37.60
2019-04-14T17:11:42.017Z,38.00
2019-04-14T17:18:42.667Z,37.60
2019-04-14T17:21:33.445Z,38.10
2019-04-14T17:24:28.959Z,38.70
2019-04-14T17:27:24.421Z,39.20
2019-04-14T17:30:22.643Z,39.80
2019-04-14T17:33:31.147Z,40.70
2019-04-14T17:36:41.206Z,40.80
2019-04-14T17:39:32.209Z,41.30
2019-04-14T17:42:15.099Z,41.20
2019-04-14T17:44:53.422Z,41.00
2019-04-14T17:47:36.442Z,40.10
2019-04-14T17:50:15.767Z,40.50
2019-04-14T17:53:24.262Z,40.90
2019-04-14T17:56:06.281Z,40.50
2019-04-14T17:58:45.586Z,40.30
2019-04-14T18:01:29.135Z,40.90
2019-04-14T18:04:37.611Z,41.00
2019-04-14T18:07:28.448Z,41.10
2019-04-14T18:10:25.063Z,41.10
2019-04-14T18:13:33.590Z,40.60
2019-04-14T18:16:36.351Z,40.30
2019-04-14T18:19:37.967Z,41.20
2019-04-14T18:22:19.918Z,42.10
2019-04-14T18:24:50.407Z,43.20
2019-04-14T18:34:28.128Z,43.40
2019-04-14T18:40:38.550Z,42.40
2019-04-14T18:43:46.989Z,43.20
2019-04-14T18:49:51.573Z,44.60
2019-04-14T18:53:00.355Z,45.90
2019-04-14T18:55:49.971Z,46.00
2019-04-14T19:02:04.031Z,46.30
2019-04-14T19:04:34.770Z,46.80
2019-04-14T19:10:08.329Z,46.50
2019-04-14T19:13:00.848Z,46.50
2019-04-14T19:19:19.571Z,46.20
2019-04-14T19:22:01.998Z,45.10
2019-04-14T19:24:43.751Z,45.00
2019-04-14T19:27:14.897Z,44.90
2019-04-14T19:29:46.218Z,45.70
2019-04-14T19:35:31.778Z,45.90
2019-04-14T19:38:13.916Z,45.30
2019-04-14T19:40:44.720Z,44.90
2019-04-14T19:46:18.167Z,46.00
2019-04-14T19:52:10.238Z,45.70
2019-04-14T19:55:00.916Z,46.20
2019-04-14T20:00:35.712Z,46.50
2019-04-14T20:03:06.223Z,46.50
2019-04-14T20:05:37.571Z,46.50
2019-04-14T20:08:08.064Z,48.30
2019-04-14T20:13:45.190Z,48.80
2019-04-14T20:16:34.574Z,48.20
2019-04-14T20:19:36.431Z,48.30
2019-04-14T20:26:17.232Z,48.60
2019-04-14T20:29:25.795Z,49.00
2019-04-14T20:32:15.007Z,48.60
2019-04-14T20:34:49.497Z,49.50
2019-04-14T20:37:20.823Z,49.40
2019-04-14T20:39:51.587Z,49.30
2019-04-14T20:45:43.208Z,48.80
2019-04-14T20:48:46.244Z,49.30
2019-04-14T20:51:28.163Z,50.30
2019-04-14T20:54:10.288Z,50.20
2019-04-14T20:56:52.079Z,49.80
2019-04-14T20:59:34.630Z,49.70
2019-04-14T21:02:35.514Z,50.70
2019-04-14T21:09:34.248Z,51.70
2019-04-14T21:12:53.615Z,51.80
2019-04-14T21:16:12.125Z,52.20
2019-04-14T21:25:38.247Z,54.30
2019-04-14T21:38:41.531Z,53.30
2019-04-14T21:41:25.932Z,53.50
2019-04-14T21:44:08.335Z,54.40
2019-04-14T21:46:50.763Z,54.20
2019-04-14T21:49:34.851Z,54.00
2019-04-14T21:55:52.208Z,54.80
2019-04-14T21:58:53.243Z,56.10
2019-04-14T22:08:30.767Z,56.90
2019-04-14T22:11:17.641Z,57.00
2019-04-14T22:14:01.727Z,56.20
2019-04-14T22:16:43.643Z,57.00
2019-04-14T22:19:14.058Z,57.40
2019-04-14T22:24:59.075Z,57.40
2019-04-14T22:27:29.827Z,57.30
2019-04-14T22:30:00.618Z,57.80
2019-04-14T22:32:31.391Z,58.10
2019-04-14T22:38:15.918Z,58.50
2019-04-14T22:40:57.608Z,57.90
2019-04-14T22:43:39.853Z,58.50
2019-04-14T22:46:21.765Z,58.60
2019-04-14T22:49:04.576Z,59.40
2019-04-14T22:51:46.711Z,59.80
2019-04-14T22:54:17.123Z,59.10
2019-04-14T23:03:41.993Z,59.60
2019-04-14T23:06:43.041Z,60.70
2019-04-14T23:09:34.295Z,62.20
2019-04-14T23:15:54.883Z,61.10
2019-04-14T23:24:57.035Z,62.70
2019-04-14T23:27:39.499Z,62.70
2019-04-14T23:30:22.147Z,63.50
2019-04-14T23:33:04.775Z,64.30
2019-04-14T23:35:46.815Z,63.60
2019-04-14T23:38:28.568Z,63.80
2019-04-14T23:41:13.878Z,63.50
2019-04-14T23:43:44.704Z,63.80
2019-04-14T23:49:28.576Z,65.20
2019-04-14T23:52:10.903Z,65.00
2019-04-14T23:54:52.720Z,64.30
2019-04-14T23:57:35.159Z,64.60
